createdAt,value
2019-04-10T00:00:45.846Z,4.79
2019-04-10T00:01:44.717Z,4.75
2019-04-10T00:02:44.606Z,4.74
2019-04-10T00:03:44.518Z,4.62
2019-04-10T00:04:45.295Z,4.65
2019-04-10T00:05:44.556Z,4.61
2019-04-10T00:06:44.207Z,4.59
2019-04-10T00:07:44.109Z,4.51
2019-04-10T00:08:44.227Z,4.42
2019-04-10T00:09:43.910Z,4.39
2019-04-10T00:10:43.904Z,4.43
2019-04-10T00:11:43.812Z,4.34
2019-04-10T00:12:43.610Z,4.32
2019-04-10T00:13:43.513Z,4.39
2019-04-10T00:14:43.416Z,4.31
2019-04-10T00:15:43.463Z,4.39
2019-04-10T00:16:43.212Z,4.42
2019-04-10T00:17:43.244Z,4.39
2019-04-10T00:18:43.013Z,4.38
2019-04-10T00:19:43.644Z,4.44
2019-04-10T00:20:42.831Z,4.43
2019-04-10T00:21:42.715Z,4.39
2019-04-10T00:22:42.616Z,4.34
2019-04-10T00:23:43.589Z,4.36
2019-04-10T00:24:42.448Z,4.42
2019-04-10T00:25:43.396Z,4.35
2019-04-10T00:26:42.214Z,4.43
2019-04-10T00:27:43.030Z,4.38
2019-04-10T00:28:42.018Z,4.43
2019-04-10T00:29:42.509Z,4.38
2019-04-10T00:30:42.760Z,4.43
2019-04-10T00:31:42.278Z,4.35
2019-04-10T00:32:41.616Z,4.36
2019-04-10T00:33:41.516Z,4.35
2019-04-10T00:34:42.057Z,4.29
2019-04-10T00:35:41.519Z,4.29
2019-04-10T00:36:41.546Z,4.36
2019-04-10T00:37:41.121Z,4.29
2019-04-10T00:38:41.876Z,4.26
2019-04-10T00:39:40.919Z,4.20
2019-04-10T00:40:41.589Z,4.16
2019-04-10T00:41:40.758Z,4.20
2019-04-10T00:42:41.148Z,4.04
2019-04-10T00:43:41.445Z,3.84
2019-04-10T00:44:40.423Z,3.93
2019-04-10T00:45:40.342Z,3.90
2019-04-10T00:46:40.220Z,3.93
2019-04-10T00:47:40.119Z,3.92
2019-04-10T00:48:40.022Z,3.92
2019-04-10T00:49:40.035Z,3.88
2019-04-10T00:50:39.835Z,3.90
2019-04-10T00:51:39.724Z,3.99
2019-04-10T00:52:40.642Z,3.96
2019-04-10T00:53:39.521Z,3.90
2019-04-10T00:54:39.424Z,4.04
2019-04-10T00:55:39.782Z,3.86
2019-04-10T00:56:39.236Z,3.92
2019-04-10T00:57:39.356Z,3.90
2019-04-10T00:58:39.550Z,3.90
2019-04-10T00:59:39.831Z,3.86
2019-04-10T01:00:39.220Z,3.90
2019-04-10T01:01:38.757Z,3.90
2019-04-10T01:02:38.772Z,3.86
2019-04-10T01:03:38.520Z,3.89
2019-04-10T01:04:38.422Z,3.86
2019-04-10T01:05:38.322Z,3.78
2019-04-10T01:06:38.237Z,3.63
2019-04-10T01:07:41.166Z,3.64
2019-04-10T01:08:38.022Z,3.57
2019-04-10T01:09:37.921Z,3.60
2019-04-10T01:10:38.764Z,3.53
2019-04-10T01:11:37.736Z,3.56
2019-04-10T01:12:38.373Z,3.50
2019-04-10T01:13:37.516Z,3.57
2019-04-10T01:14:38.043Z,3.54
2019-04-10T01:15:38.502Z,3.60
2019-04-10T01:16:37.714Z,3.60
2019-04-10T01:17:38.139Z,3.60
2019-04-10T01:18:37.412Z,3.71
2019-04-10T01:19:36.917Z,3.74
2019-04-10T01:20:37.767Z,3.68
2019-04-10T01:21:36.840Z,3.81
2019-04-10T01:22:36.617Z,3.80
2019-04-10T01:23:37.895Z,3.81
2019-04-10T01:24:37.552Z,3.75
2019-04-10T01:25:36.789Z,3.77
2019-04-10T01:26:37.089Z,3.82
2019-04-10T01:27:36.194Z,3.78
2019-04-10T01:28:36.675Z,3.74
2019-04-10T01:29:35.919Z,3.74
2019-04-10T01:30:35.815Z,3.75
2019-04-10T01:31:35.730Z,3.78
2019-04-10T01:32:36.334Z,3.78
2019-04-10T01:33:35.513Z,3.71
2019-04-10T01:34:35.744Z,3.60
2019-04-10T01:35:35.335Z,3.63
2019-04-10T01:36:35.376Z,3.56
2019-04-10T01:37:47.693Z,3.53
2019-04-10T01:38:35.594Z,3.42
2019-04-10T01:39:34.914Z,3.37
2019-04-10T01:40:35.163Z,3.44
2019-04-10T01:41:34.829Z,3.41
2019-04-10T01:42:34.656Z,3.30
2019-04-10T01:43:35.108Z,3.37
2019-04-10T01:44:34.411Z,3.31
2019-04-10T01:45:34.310Z,3.33
2019-04-10T01:46:35.823Z,3.42
2019-04-10T01:47:35.003Z,3.54
2019-04-10T01:48:34.535Z,3.54
2019-04-10T01:49:33.911Z,3.56
2019-04-10T01:50:34.742Z,3.60
2019-04-10T01:51:33.727Z,3.62
2019-04-10T01:52:33.624Z,3.59
2019-04-10T01:53:33.593Z,3.60
2019-04-10T01:54:33.415Z,3.62
2019-04-10T01:55:34.270Z,3.54
2019-04-10T01:56:35.117Z,3.59
2019-04-10T01:57:33.110Z,3.60
2019-04-10T01:58:33.009Z,3.62
2019-04-10T01:59:34.014Z,3.60
2019-04-10T02:00:32.812Z,3.60
2019-04-10T02:01:32.723Z,3.68
2019-04-10T02:02:33.549Z,3.63
2019-04-10T02:03:32.511Z,3.59
2019-04-10T02:04:33.142Z,3.59
2019-04-10T02:05:32.500Z,3.68
2019-04-10T02:06:32.224Z,3.67
2019-04-10T02:07:32.109Z,3.68
2019-04-10T02:08:32.004Z,3.67
2019-04-10T02:09:32.006Z,3.67
2019-04-10T02:10:32.105Z,3.74
2019-04-10T02:11:32.277Z,3.63
2019-04-10T02:12:31.606Z,3.64
2019-04-10T02:13:31.675Z,3.67
2019-04-10T02:14:32.118Z,3.57
2019-04-10T02:15:32.216Z,3.59
2019-04-10T02:16:31.326Z,3.63
2019-04-10T02:17:31.103Z,3.57
2019-04-10T02:18:31.005Z,3.52
2019-04-10T02:19:30.909Z,3.67
2019-04-10T02:20:31.325Z,3.57
2019-04-10T02:21:31.745Z,3.59
2019-04-10T02:22:30.853Z,3.49
2019-04-10T02:23:30.607Z,3.49
2019-04-10T02:24:31.326Z,3.50
2019-04-10T02:25:30.629Z,3.54
2019-04-10T02:26:30.217Z,3.50
2019-04-10T02:27:30.188Z,3.46
2019-04-10T02:28:30.961Z,3.53
2019-04-10T02:29:29.899Z,3.39
2019-04-10T02:30:30.352Z,3.35
2019-04-10T02:31:30.626Z,3.39
2019-04-10T02:32:29.601Z,3.45
2019-04-10T02:33:29.498Z,3.33
2019-04-10T02:34:30.692Z,3.25
2019-04-10T02:35:29.770Z,3.17
2019-04-10T02:36:31.364Z,3.25
2019-04-10T02:37:29.198Z,3.26
2019-04-10T02:38:47.835Z,3.22
2019-04-10T02:39:36.156Z,3.13
2019-04-10T02:40:28.964Z,3.16
2019-04-10T02:41:29.887Z,3.12
2019-04-10T02:42:30.089Z,3.13
2019-04-10T02:43:29.253Z,3.13
2019-04-10T02:44:30.462Z,3.08
2019-04-10T02:45:28.299Z,3.15
2019-04-10T02:46:29.280Z,3.19
2019-04-10T02:47:28.381Z,3.15
2019-04-10T02:48:29.549Z,3.16
2019-04-10T02:49:28.071Z,3.08
2019-04-10T02:50:29.280Z,2.98
2019-04-10T02:51:27.700Z,3.02
2019-04-10T02:52:28.422Z,3.07
2019-04-10T02:53:27.686Z,3.01
2019-04-10T02:54:28.942Z,2.94
2019-04-10T02:55:27.382Z,2.89
2019-04-10T02:56:28.488Z,2.80
2019-04-10T02:57:27.610Z,2.86
2019-04-10T02:58:26.993Z,2.77
2019-04-10T02:59:27.132Z,2.79
2019-04-10T03:00:28.173Z,2.66
2019-04-10T03:01:27.282Z,2.63
2019-04-10T03:02:26.847Z,2.66
2019-04-10T03:03:27.621Z,2.66
2019-04-10T03:04:26.717Z,2.63
2019-04-10T03:05:27.357Z,2.59
2019-04-10T03:06:27.253Z,2.58
2019-04-10T03:07:26.099Z,2.51
2019-04-10T03:08:41.009Z,2.45
2019-04-10T03:09:41.856Z,2.36
2019-04-10T03:10:35.968Z,2.40
2019-04-10T03:11:26.472Z,2.38
2019-04-10T03:12:25.726Z,2.36
2019-04-10T03:13:26.850Z,2.30
2019-04-10T03:14:26.430Z,2.37
2019-04-10T03:15:25.364Z,2.15
2019-04-10T03:16:25.174Z,2.20
2019-04-10T03:17:25.989Z,2.02
2019-04-10T03:18:25.150Z,2.15
2019-04-10T03:19:25.495Z,2.20
2019-04-10T03:20:24.771Z,2.08
2019-04-10T03:21:24.671Z,2.09
2019-04-10T03:22:24.947Z,2.01
2019-04-10T03:23:25.203Z,2.12
2019-04-10T03:24:25.270Z,2.05
2019-04-10T03:25:24.656Z,1.95
2019-04-10T03:26:24.167Z,2.01
2019-04-10T03:27:24.083Z,1.90
2019-04-10T03:28:24.943Z,1.88
2019-04-10T03:29:24.080Z,1.83
2019-04-10T03:30:23.906Z,1.93
2019-04-10T03:31:25.277Z,1.95
2019-04-10T03:32:27.880Z,1.93
2019-04-10T03:33:28.907Z,1.81
2019-04-10T03:34:25.609Z,1.86
2019-04-10T03:35:23.257Z,1.83
2019-04-10T03:36:23.271Z,1.83
2019-04-10T03:37:23.069Z,1.72
2019-04-10T03:38:23.726Z,1.75
2019-04-10T03:39:23.698Z,1.67
2019-04-10T03:40:23.698Z,1.65
2019-04-10T03:41:22.652Z,1.77
2019-04-10T03:42:23.199Z,1.86
2019-04-10T03:43:22.561Z,1.86
2019-04-10T03:44:22.835Z,1.74
2019-04-10T03:45:22.432Z,1.77
2019-04-10T03:46:22.154Z,1.71
2019-04-10T03:47:22.936Z,1.67
2019-04-10T03:48:22.966Z,1.70
2019-04-10T03:49:22.126Z,1.63
2019-04-10T03:50:21.739Z,1.63
2019-04-10T03:51:22.753Z,1.60
2019-04-10T03:52:21.549Z,1.63
2019-04-10T03:53:22.303Z,1.49
2019-04-10T03:54:21.329Z,1.46
2019-04-10T03:55:21.230Z,1.56
2019-04-10T03:56:21.362Z,1.50
2019-04-10T03:57:21.047Z,1.64
2019-04-10T03:58:20.926Z,1.61
2019-04-10T03:59:20.826Z,1.64
2019-04-10T04:00:21.066Z,1.60
2019-04-10T04:01:20.832Z,1.60
2019-04-10T04:02:20.535Z,1.50
2019-04-10T04:03:20.518Z,1.63
2019-04-10T04:04:20.315Z,1.49
2019-04-10T04:05:20.370Z,1.47
2019-04-10T04:06:20.113Z,1.49
2019-04-10T04:07:20.997Z,1.50
2019-04-10T04:08:19.909Z,1.63
2019-04-10T04:09:20.108Z,1.57
2019-04-10T04:10:20.491Z,1.70
2019-04-10T04:11:19.731Z,1.61
2019-04-10T04:12:20.238Z,1.61
2019-04-10T04:13:19.575Z,1.60
2019-04-10T04:14:19.969Z,1.56
2019-04-10T04:15:19.885Z,1.49
2019-04-10T04:16:19.237Z,1.50
2019-04-10T04:17:19.991Z,1.49
2019-04-10T04:18:19.278Z,1.47
2019-04-10T04:19:18.792Z,1.50
2019-04-10T04:20:19.104Z,1.53
2019-04-10T04:21:19.520Z,1.47
2019-04-10T04:22:18.817Z,1.52
2019-04-10T04:23:19.319Z,1.52
2019-04-10T04:24:21.142Z,1.52
2019-04-10T04:25:18.187Z,1.52
2019-04-10T04:26:19.067Z,1.47
2019-04-10T04:27:18.918Z,1.35
2019-04-10T04:28:18.838Z,1.34
2019-04-10T04:29:18.483Z,1.42
2019-04-10T04:30:17.681Z,1.46
2019-04-10T04:31:18.082Z,1.42
2019-04-10T04:32:17.697Z,1.38
2019-04-10T04:33:17.405Z,1.39
2019-04-10T04:34:17.270Z,1.28
2019-04-10T04:35:17.581Z,1.20
2019-04-10T04:36:18.040Z,1.21
2019-04-10T04:37:16.983Z,1.14
2019-04-10T04:38:17.795Z,1.07
2019-04-10T04:39:24.030Z,0.98
2019-04-10T04:40:17.430Z,1.06
2019-04-10T04:41:17.409Z,1.02
2019-04-10T04:42:17.025Z,0.90
2019-04-10T04:43:16.700Z,0.96
2019-04-10T04:44:16.251Z,0.93
2019-04-10T04:45:17.282Z,0.95
2019-04-10T04:46:16.219Z,0.96
2019-04-10T04:47:15.948Z,0.92
2019-04-10T04:48:16.935Z,0.90
2019-04-10T04:49:15.768Z,0.93
2019-04-10T04:50:15.749Z,0.95
2019-04-10T04:51:15.539Z,0.90
2019-04-10T04:52:16.250Z,0.92
2019-04-10T04:53:16.322Z,0.90
2019-04-10T04:54:15.234Z,1.00
2019-04-10T04:55:15.132Z,0.99
2019-04-10T04:56:15.749Z,0.92
2019-04-10T04:57:15.038Z,0.92
2019-04-10T04:58:14.894Z,0.98
2019-04-10T04:59:14.725Z,0.95
2019-04-10T05:00:15.246Z,1.07
2019-04-10T05:01:14.741Z,1.04
2019-04-10T05:02:14.441Z,1.08
2019-04-10T05:03:14.336Z,1.10
2019-04-10T05:04:15.186Z,1.06
2019-04-10T05:05:14.312Z,1.13
2019-04-10T05:06:14.016Z,1.29
2019-04-10T05:07:14.832Z,1.26
2019-04-10T05:08:13.826Z,1.36
2019-04-10T05:09:25.995Z,1.35
2019-04-10T05:10:13.623Z,1.39
2019-04-10T05:11:13.884Z,1.44
2019-04-10T05:12:13.460Z,1.44
2019-04-10T05:13:13.674Z,1.50
2019-04-10T05:14:13.250Z,1.46
2019-04-10T05:15:13.099Z,1.44
2019-04-10T05:16:13.000Z,1.47
2019-04-10T05:17:15.066Z,1.52
2019-04-10T05:18:12.810Z,1.57
2019-04-10T05:19:12.690Z,1.60
2019-04-10T05:20:12.589Z,1.67
2019-04-10T05:21:12.744Z,1.82
2019-04-10T05:22:12.387Z,1.90
2019-04-10T05:23:12.300Z,2.04
2019-04-10T05:24:12.184Z,2.12
2019-04-10T05:25:13.172Z,2.15
2019-04-10T05:26:11.984Z,2.27
2019-04-10T05:27:11.949Z,2.33
2019-04-10T05:28:11.801Z,2.44
2019-04-10T05:29:11.688Z,2.47
2019-04-10T05:30:11.574Z,2.56
2019-04-10T05:31:11.474Z,2.55
2019-04-10T05:32:11.479Z,2.66
2019-04-10T05:33:11.994Z,2.77
2019-04-10T05:34:11.455Z,2.76
2019-04-10T05:35:11.591Z,2.79
2019-04-10T05:36:11.213Z,2.95
2019-04-10T05:37:11.458Z,2.95
2019-04-10T05:38:10.792Z,3.07
2019-04-10T05:39:10.675Z,3.05
2019-04-10T05:40:10.567Z,3.04
2019-04-10T05:41:10.467Z,2.90
2019-04-10T05:42:10.622Z,2.81
2019-04-10T05:43:11.408Z,2.80
2019-04-10T05:44:10.163Z,2.89
2019-04-10T05:45:10.071Z,2.94
2019-04-10T05:46:09.963Z,2.94
2019-04-10T05:47:10.347Z,2.79
2019-04-10T05:48:10.978Z,2.74
2019-04-10T05:49:10.748Z,2.66
2019-04-10T05:50:10.769Z,2.68
2019-04-10T05:51:09.558Z,2.71
2019-04-10T05:52:10.196Z,2.63
2019-04-10T05:53:09.824Z,2.68
2019-04-10T05:54:09.164Z,2.71
2019-04-10T05:55:09.063Z,2.77
2019-04-10T05:56:09.860Z,2.79
2019-04-10T05:57:08.860Z,2.80
2019-04-10T05:58:09.228Z,2.94
2019-04-10T05:59:10.804Z,2.90
2019-04-10T06:00:08.566Z,2.94
2019-04-10T06:01:09.390Z,2.92
2019-04-10T06:02:09.338Z,2.90
2019-04-10T06:03:08.284Z,2.90
2019-04-10T06:04:09.207Z,3.10
2019-04-10T06:05:08.068Z,3.22
2019-04-10T06:06:08.345Z,3.33
2019-04-10T06:07:08.577Z,3.26
2019-04-10T06:08:07.894Z,3.42
2019-04-10T06:09:08.657Z,3.23
2019-04-10T06:10:10.270Z,3.20
2019-04-10T06:11:08.600Z,3.22
2019-04-10T06:12:07.363Z,3.37
2019-04-10T06:13:07.287Z,3.41
2019-04-10T06:14:08.152Z,3.49
2019-04-10T06:15:07.066Z,3.63
2019-04-10T06:16:07.713Z,3.81
2019-04-10T06:17:07.949Z,3.92
2019-04-10T06:18:07.102Z,4.10
2019-04-10T06:19:07.326Z,4.29
2019-04-10T06:20:07.120Z,4.53
2019-04-10T06:21:07.095Z,4.64
2019-04-10T06:22:09.192Z,4.80
2019-04-10T06:23:07.335Z,4.94
2019-04-10T06:24:06.200Z,5.02
2019-04-10T06:25:08.333Z,5.22
2019-04-10T06:26:06.864Z,5.42
2019-04-10T06:27:06.003Z,5.38
2019-04-10T06:28:05.773Z,5.62
2019-04-10T06:29:06.512Z,5.73
2019-04-10T06:30:05.734Z,5.80
2019-04-10T06:31:06.213Z,5.95
2019-04-10T06:32:05.412Z,5.84
2019-04-10T06:33:05.283Z,5.85
2019-04-10T06:34:05.304Z,5.83
2019-04-10T06:35:05.770Z,5.74
2019-04-10T06:36:05.026Z,5.77
2019-04-10T06:37:06.038Z,5.63
2019-04-10T06:38:04.794Z,5.69
2019-04-10T06:39:04.733Z,5.69
2019-04-10T06:40:13.039Z,5.60
2019-04-10T06:41:04.609Z,5.59
2019-04-10T06:42:04.550Z,5.19
2019-04-10T06:43:04.456Z,5.08
2019-04-10T06:44:04.222Z,5.23
2019-04-10T06:45:05.715Z,5.08
2019-04-10T06:46:04.320Z,5.14
2019-04-10T06:47:04.231Z,5.33
2019-04-10T06:48:03.927Z,5.49
2019-04-10T06:49:05.418Z,5.70
2019-04-10T06:50:04.338Z,5.85
2019-04-10T06:51:04.002Z,5.80
2019-04-10T06:52:03.429Z,5.83
2019-04-10T06:53:04.137Z,5.98
2019-04-10T06:54:08.102Z,6.24
2019-04-10T06:55:03.239Z,6.28
2019-04-10T06:56:03.048Z,6.27
2019-04-10T06:57:02.941Z,6.46
2019-04-10T06:58:02.868Z,6.63
2019-04-10T06:59:02.785Z,6.63
2019-04-10T07:00:02.651Z,6.72
2019-04-10T07:01:02.555Z,6.91
2019-04-10T07:02:13.112Z,6.90
2019-04-10T07:03:03.098Z,6.87
2019-04-10T07:04:06.985Z,6.69
2019-04-10T07:05:05.754Z,6.73
2019-04-10T07:06:09.644Z,6.61
2019-04-10T07:07:08.839Z,6.91
2019-04-10T07:08:10.983Z,6.63
2019-04-10T07:09:01.927Z,6.81
2019-04-10T07:10:02.332Z,7.15
2019-04-10T07:11:06.824Z,7.34
2019-04-10T07:12:03.025Z,7.30
2019-04-10T07:13:04.287Z,7.45
2019-04-10T07:14:01.595Z,7.77
2019-04-10T07:15:02.329Z,7.99
2019-04-10T07:16:02.061Z,8.21
2019-04-10T07:17:05.315Z,8.54
2019-04-10T07:18:01.027Z,8.64
2019-04-10T07:19:04.269Z,8.75
2019-04-10T07:20:01.852Z,9.03
2019-04-10T07:21:01.678Z,9.12
2019-04-10T07:22:01.868Z,8.97
2019-04-10T07:23:00.544Z,8.98
2019-04-10T07:24:04.999Z,8.98
2019-04-10T07:25:00.550Z,8.86
2019-04-10T07:26:00.168Z,8.88
2019-04-10T07:27:03.289Z,8.65
2019-04-10T07:28:01.171Z,8.47
2019-04-10T07:29:00.549Z,8.55
2019-04-10T07:29:59.865Z,8.27
2019-04-10T07:31:05.002Z,7.96
2019-04-10T07:32:00.461Z,8.22
2019-04-10T07:32:59.500Z,7.99
2019-04-10T07:33:59.977Z,8.04
2019-04-10T07:35:01.125Z,7.94
2019-04-10T07:35:59.295Z,7.74
2019-04-10T07:37:00.124Z,7.89
2019-04-10T07:37:59.680Z,7.95
2019-04-10T07:38:59.223Z,7.96
2019-04-10T07:40:02.619Z,7.89
2019-04-10T07:40:58.913Z,7.86
2019-04-10T07:41:58.654Z,8.00
2019-04-10T07:42:58.772Z,8.28
2019-04-10T07:43:58.755Z,8.55
2019-04-10T07:44:58.392Z,9.01
2019-04-10T07:45:58.280Z,8.89
2019-04-10T07:46:59.718Z,9.17
2019-04-10T07:47:58.159Z,9.40
2019-04-10T07:48:58.606Z,9.78
2019-04-10T07:50:00.786Z,9.81
2019-04-10T07:50:57.812Z,9.95
2019-04-10T07:51:58.656Z,10.02
2019-04-10T07:52:57.661Z,10.57
2019-04-10T07:53:57.754Z,10.84
2019-04-10T07:54:58.653Z,10.44
2019-04-10T07:56:05.359Z,10.47
2019-04-10T07:56:57.892Z,10.63
2019-04-10T07:57:57.260Z,10.54
2019-04-10T07:58:57.065Z,10.65
2019-04-10T07:59:56.983Z,10.58
2019-04-10T08:00:56.872Z,10.62
2019-04-10T08:01:57.776Z,10.60
2019-04-10T08:02:57.495Z,10.06
2019-04-10T08:03:57.580Z,10.65
2019-04-10T08:04:56.517Z,10.32
2019-04-10T08:05:56.416Z,10.10
2019-04-10T08:06:56.323Z,10.22
2019-04-10T08:07:57.419Z,10.14
2019-04-10T08:08:56.133Z,10.01
2019-04-10T08:09:56.059Z,10.07
2019-04-10T08:10:55.957Z,10.28
2019-04-10T08:11:56.732Z,10.01
2019-04-10T08:12:56.021Z,10.06
2019-04-10T08:13:56.140Z,9.95
2019-04-10T08:14:56.166Z,10.35
2019-04-10T08:15:56.347Z,10.63
2019-04-10T08:16:55.398Z,10.84
2019-04-10T08:17:56.107Z,10.91
2019-04-10T08:18:56.215Z,11.03
2019-04-10T08:19:55.200Z,10.81
2019-04-10T08:20:55.212Z,10.88
2019-04-10T08:21:54.941Z,10.93
2019-04-10T08:22:55.329Z,11.19
2019-04-10T08:23:54.912Z,11.11
2019-04-10T08:24:54.824Z,11.38
2019-04-10T08:25:54.596Z,11.56
2019-04-10T08:26:54.835Z,11.70
2019-04-10T08:27:54.385Z,11.67
2019-04-10T08:28:54.296Z,11.67
2019-04-10T08:29:54.785Z,11.74
2019-04-10T08:30:54.649Z,11.96
2019-04-10T08:31:54.022Z,11.79
2019-04-10T08:33:00.846Z,11.42
2019-04-10T08:33:54.740Z,11.38
2019-04-10T08:34:53.745Z,11.38
2019-04-10T08:35:54.717Z,11.30
2019-04-10T08:36:55.045Z,11.28
2019-04-10T08:37:53.510Z,11.79
2019-04-10T08:38:53.380Z,11.62
2019-04-10T08:39:53.290Z,11.60
2019-04-10T08:40:54.390Z,11.24
2019-04-10T08:41:53.106Z,11.42
2019-04-10T08:42:53.018Z,11.56
2019-04-10T08:43:52.926Z,11.44
2019-04-10T08:44:52.836Z,11.41
2019-04-10T08:45:53.761Z,10.91
2019-04-10T08:46:52.668Z,10.94
2019-04-10T08:47:52.923Z,11.05
2019-04-10T08:48:52.471Z,11.28
2019-04-10T08:49:52.871Z,11.45
2019-04-10T08:50:52.500Z,11.51
2019-04-10T08:51:52.215Z,11.56
2019-04-10T08:52:52.210Z,11.62
2019-04-10T08:53:54.211Z,11.31
2019-04-10T08:54:51.924Z,10.91
2019-04-10T08:55:52.614Z,11.42
2019-04-10T08:56:52.608Z,11.69
2019-04-10T08:57:52.426Z,11.94
2019-04-10T08:58:51.776Z,11.96
2019-04-10T08:59:52.049Z,12.25
2019-04-10T09:00:52.726Z,12.43
2019-04-10T09:01:51.529Z,12.73
2019-04-10T09:02:51.200Z,12.84
2019-04-10T09:03:51.111Z,12.38
2019-04-10T09:04:51.086Z,12.04
2019-04-10T09:05:51.146Z,12.38
2019-04-10T09:06:51.545Z,12.70
2019-04-10T09:07:50.751Z,12.04
2019-04-10T09:08:50.930Z,11.48
2019-04-10T09:09:50.565Z,11.60
2019-04-10T09:10:50.524Z,11.70
2019-04-10T09:11:51.383Z,12.00
2019-04-10T09:12:51.181Z,12.01
2019-04-10T09:13:50.311Z,12.37
2019-04-10T09:14:50.113Z,12.58
2019-04-10T09:15:50.047Z,12.91
2019-04-10T09:16:51.003Z,13.03
2019-04-10T09:17:49.878Z,12.77
2019-04-10T09:18:49.750Z,13.48
2019-04-10T09:19:49.864Z,13.84
2019-04-10T09:20:49.698Z,14.20
2019-04-10T09:21:49.901Z,14.11
2019-04-10T09:23:10.366Z,13.98
2019-04-10T09:23:52.822Z,13.99
2019-04-10T09:24:49.210Z,14.04
2019-04-10T09:25:49.221Z,14.20
2019-04-10T09:26:49.034Z,14.27
2019-04-10T09:27:49.697Z,14.23
2019-04-10T09:28:48.862Z,13.88
2019-04-10T09:29:48.763Z,13.73
2019-04-10T09:30:49.059Z,13.63
2019-04-10T09:31:48.593Z,13.80
2019-04-10T09:32:48.581Z,13.73
2019-04-10T09:33:49.460Z,13.75
2019-04-10T09:34:48.315Z,14.11
2019-04-10T09:35:48.867Z,14.35
2019-04-10T09:36:49.195Z,14.19
2019-04-10T09:37:48.340Z,14.39
2019-04-10T09:38:47.961Z,14.23
2019-04-10T09:39:50.609Z,14.26
2019-04-10T09:40:48.760Z,14.71
2019-04-10T09:41:47.694Z,14.34
2019-04-10T09:42:47.993Z,14.34
2019-04-10T09:43:47.743Z,14.05
2019-04-10T09:44:48.513Z,13.90
2019-04-10T09:45:48.026Z,13.61
2019-04-10T09:46:47.336Z,13.27
2019-04-10T09:47:48.075Z,13.47
2019-04-10T09:48:47.686Z,13.90
2019-04-10T09:49:47.215Z,14.17
2019-04-10T09:50:48.057Z,14.66
2019-04-10T09:51:48.059Z,14.24
2019-04-10T09:52:46.719Z,13.99
2019-04-10T09:53:46.627Z,14.42
2019-04-10T09:54:46.795Z,14.13
2019-04-10T09:55:46.934Z,13.99
2019-04-10T09:56:46.416Z,13.83
2019-04-10T09:57:46.272Z,13.90
2019-04-10T09:58:46.813Z,14.17
2019-04-10T09:59:47.136Z,14.35
2019-04-10T10:00:46.021Z,14.31
2019-04-10T10:01:46.452Z,14.74
2019-04-10T10:02:45.827Z,15.19
2019-04-10T10:03:45.740Z,15.15
2019-04-10T10:04:45.996Z,15.28
2019-04-10T10:05:46.634Z,15.23
2019-04-10T10:06:45.472Z,15.15
2019-04-10T10:07:45.383Z,15.22
2019-04-10T10:08:45.301Z,15.35
2019-04-10T10:09:45.218Z,15.41
2019-04-10T10:10:45.121Z,15.70
2019-04-10T10:11:45.045Z,15.80
2019-04-10T10:12:45.034Z,15.44
2019-04-10T10:13:45.806Z,15.22
2019-04-10T10:14:44.767Z,15.34
2019-04-10T10:15:45.242Z,15.48
2019-04-10T10:16:44.603Z,15.71
2019-04-10T10:17:44.602Z,15.77
2019-04-10T10:18:45.643Z,15.91
2019-04-10T10:19:44.321Z,15.76
2019-04-10T10:20:44.241Z,15.85
2019-04-10T10:21:44.887Z,15.85
2019-04-10T10:22:44.061Z,15.78
2019-04-10T10:23:44.673Z,15.84
2019-04-10T10:24:43.880Z,15.70
2019-04-10T10:25:43.795Z,15.74
2019-04-10T10:26:46.051Z,16.04
2019-04-10T10:27:44.676Z,15.92
2019-04-10T10:28:43.529Z,15.70
2019-04-10T10:29:44.111Z,15.77
2019-04-10T10:30:43.968Z,15.38
2019-04-10T10:31:44.378Z,15.51
2019-04-10T10:32:43.803Z,15.40
2019-04-10T10:33:43.092Z,15.38
2019-04-10T10:34:43.001Z,15.78
2019-04-10T10:35:43.194Z,15.84
2019-04-10T10:36:46.146Z,15.88
2019-04-10T10:37:42.905Z,16.22
2019-04-10T10:38:43.386Z,16.06
2019-04-10T10:39:43.072Z,16.17
2019-04-10T10:40:43.599Z,16.50
2019-04-10T10:41:42.643Z,16.52
2019-04-10T10:42:43.462Z,16.47
2019-04-10T10:43:42.618Z,16.54
2019-04-10T10:44:42.476Z,16.87
2019-04-10T10:45:42.937Z,16.87
2019-04-10T10:46:41.969Z,16.91
2019-04-10T10:47:41.863Z,16.77
2019-04-10T10:48:42.057Z,16.78
2019-04-10T10:49:42.359Z,16.67
2019-04-10T10:50:41.655Z,16.55
2019-04-10T10:51:42.545Z,16.72
2019-04-10T10:52:41.713Z,16.18
2019-04-10T10:53:41.351Z,16.10
2019-04-10T10:54:41.254Z,16.30
2019-04-10T10:55:42.058Z,16.36
2019-04-10T10:56:41.097Z,16.48
2019-04-10T10:57:41.568Z,16.60
2019-04-10T10:58:40.905Z,16.50
2019-04-10T10:59:41.790Z,16.54
2019-04-10T11:00:41.130Z,16.57
2019-04-10T11:01:40.662Z,16.45
2019-04-10T11:02:41.504Z,16.27
2019-04-10T11:03:40.563Z,16.52
2019-04-10T11:04:40.387Z,16.50
2019-04-10T11:05:40.403Z,16.55
2019-04-10T11:06:51.497Z,16.42
2019-04-10T11:07:40.533Z,16.44
2019-04-10T11:08:40.033Z,16.85
2019-04-10T11:09:40.218Z,16.90
2019-04-10T11:10:41.084Z,16.95
2019-04-10T11:11:40.932Z,16.99
2019-04-10T11:12:39.989Z,17.05
2019-04-10T11:13:39.602Z,16.95
2019-04-10T11:14:39.632Z,16.96
2019-04-10T11:15:43.671Z,16.92
2019-04-10T11:16:39.352Z,16.60
2019-04-10T11:17:40.404Z,16.66
2019-04-10T11:18:40.316Z,16.57
2019-04-10T11:19:39.453Z,16.88
2019-04-10T11:20:39.406Z,16.42
2019-04-10T11:21:39.053Z,16.65
2019-04-10T11:22:39.733Z,16.60
2019-04-10T11:23:38.872Z,16.81
2019-04-10T11:24:40.759Z,17.00
2019-04-10T11:25:40.141Z,17.06
2019-04-10T11:26:39.923Z,17.06
2019-04-10T11:27:39.311Z,16.88
2019-04-10T11:28:39.301Z,17.00
2019-04-10T11:29:39.014Z,16.82
2019-04-10T11:30:38.346Z,16.47
2019-04-10T11:31:38.544Z,16.50
2019-04-10T11:32:38.289Z,16.51
2019-04-10T11:33:39.714Z,16.72
2019-04-10T11:34:38.205Z,16.54
2019-04-10T11:35:37.686Z,16.75
2019-04-10T11:36:37.614Z,16.48
2019-04-10T11:37:44.585Z,16.73
2019-04-10T11:38:37.503Z,16.65
2019-04-10T11:39:40.424Z,16.84
2019-04-10T11:40:38.822Z,17.07
2019-04-10T11:41:37.432Z,16.99
2019-04-10T11:42:37.282Z,17.25
2019-04-10T11:43:37.663Z,17.42
2019-04-10T11:44:38.932Z,17.57
2019-04-10T11:45:42.603Z,17.15
2019-04-10T11:46:38.684Z,17.36
2019-04-10T11:47:36.760Z,17.06
2019-04-10T11:48:36.687Z,16.90
2019-04-10T11:49:40.035Z,17.07
2019-04-10T11:50:38.442Z,16.98
2019-04-10T11:51:38.736Z,16.50
2019-04-10T11:53:39.874Z,16.34
2019-04-10T11:54:40.980Z,16.54
2019-04-10T11:56:37.845Z,16.82
2019-04-10T11:57:37.326Z,16.99
2019-04-10T11:58:43.860Z,16.78
2019-04-10T11:59:37.967Z,17.40
2019-04-10T12:00:46.420Z,17.24
2019-04-10T12:01:36.823Z,17.25
2019-04-10T12:02:36.937Z,17.21
2019-04-10T12:03:37.052Z,17.21
2019-04-10T12:04:47.453Z,16.60
2019-04-10T12:05:36.673Z,16.48
2019-04-10T12:06:37.659Z,16.23
2019-04-10T12:08:01.337Z,16.52
2019-04-10T12:09:00.374Z,16.60
2019-04-10T12:11:35.160Z,17.07
2019-04-10T12:12:35.459Z,16.91
2019-04-10T12:13:34.531Z,16.88
2019-04-10T12:14:35.221Z,17.14
2019-04-10T12:15:34.442Z,16.99
2019-04-10T12:16:34.122Z,17.25
2019-04-10T12:17:34.052Z,17.15
2019-04-10T12:18:35.030Z,16.95
2019-04-10T12:19:33.861Z,17.15
2019-04-10T12:20:33.776Z,16.90
2019-04-10T12:21:33.767Z,17.02
2019-04-10T12:22:33.817Z,17.25
2019-04-10T12:23:34.651Z,16.91
2019-04-10T12:24:34.191Z,16.85
2019-04-10T12:25:34.627Z,16.59
2019-04-10T12:26:33.901Z,16.29
2019-04-10T12:27:33.526Z,16.08
2019-04-10T12:28:33.920Z,16.04
2019-04-10T12:29:33.077Z,15.77
2019-04-10T12:30:32.905Z,15.60
2019-04-10T12:31:33.241Z,15.53
2019-04-10T12:32:32.747Z,15.56
2019-04-10T12:33:33.687Z,15.58
2019-04-10T12:34:32.557Z,15.67
2019-04-10T12:35:32.470Z,15.77
2019-04-10T12:36:32.383Z,15.37
2019-04-10T12:37:32.832Z,15.60
2019-04-10T12:38:32.206Z,15.59
2019-04-10T12:39:32.255Z,15.78
2019-04-10T12:40:32.928Z,16.10
2019-04-10T12:41:33.143Z,15.62
2019-04-10T12:42:32.339Z,15.80
2019-04-10T12:43:32.665Z,15.71
2019-04-10T12:44:31.735Z,15.88
2019-04-10T12:45:32.616Z,15.74
2019-04-10T12:46:31.502Z,15.64
2019-04-10T12:47:32.208Z,15.48
2019-04-10T12:48:31.548Z,15.01
2019-04-10T12:49:31.692Z,14.57
2019-04-10T12:50:31.149Z,14.54
2019-04-10T12:51:31.978Z,14.45
2019-04-10T12:52:30.991Z,14.52
2019-04-10T12:53:31.743Z,14.44
2019-04-10T12:54:30.794Z,14.48
2019-04-10T12:55:30.730Z,14.45
2019-04-10T12:56:30.616Z,14.59
2019-04-10T12:57:30.764Z,14.63
2019-04-10T12:58:30.869Z,14.59
2019-04-10T12:59:31.146Z,14.49
2019-04-10T13:00:30.261Z,14.48
2019-04-10T13:01:30.978Z,13.96
2019-04-10T13:02:30.348Z,13.86
2019-04-10T13:03:31.250Z,13.84
2019-04-10T13:04:30.268Z,13.72
2019-04-10T13:05:29.817Z,13.72
2019-04-10T13:06:29.822Z,13.83
2019-04-10T13:07:29.765Z,13.93
2019-04-10T13:08:48.323Z,13.90
2019-04-10T13:09:29.669Z,13.93
2019-04-10T13:10:29.567Z,13.94